createdAt,value
2019-01-10T09:16:15.752Z,26.10
2019-01-10T09:17:15.625Z,24.40
2019-01-10T09:18:57.271Z,19.70
2019-01-10T09:19:57.225Z,24.50
2019-01-10T09:21:23.477Z,28.20
2019-01-10T09:45:42.808Z,23.30
2019-01-10T09:46:35.494Z,23.50
2019-01-10T09:47:34.473Z,21.50
2019-01-10T09:48:37.985Z,23.80
2019-01-10T09:49:37.966Z,24.80
2019-01-10T09:50:38.032Z,23.60
2019-01-10T10:21:01.903Z,15.20
2019-01-10T10:21:45.084Z,19.00
2019-01-10T10:22:45.045Z,19.00
2019-01-10T10:23:44.998Z,18.90
2019-01-10T10:24:44.945Z,20.70
2019-01-10T10:25:23.455Z,16.70
2019-01-10T10:26:23.533Z,20.90
2019-01-10T10:27:23.401Z,15.30
2019-01-10T10:28:23.375Z,21.50
2019-01-10T10:29:23.355Z,17.30
2019-01-10T10:30:23.302Z,21.30
2019-01-10T10:31:23.247Z,22.50
2019-01-10T10:32:23.227Z,19.10
2019-01-10T10:33:23.157Z,21.70
2019-01-10T10:34:23.096Z,18.70
2019-01-10T10:35:23.094Z,22.60
2019-01-10T10:36:22.998Z,30.10
2019-01-10T10:37:22.963Z,22.90
2019-01-10T10:38:22.912Z,25.20
2019-01-10T10:39:22.844Z,25.20
2019-01-10T10:40:22.786Z,19.00
2019-01-10T10:41:22.735Z,20.30
2019-01-10T10:42:22.678Z,20.20
2019-01-10T10:43:22.616Z,21.90
2019-01-10T10:44:22.588Z,21.80
2019-01-10T10:45:22.500Z,22.70
2019-01-10T10:46:22.439Z,29.00
2019-01-10T10:47:22.374Z,23.70
2019-01-10T10:48:22.319Z,20.10
2019-01-10T10:49:22.254Z,21.80
2019-01-10T10:50:22.210Z,21.50
2019-01-10T10:51:22.135Z,22.60
2019-01-10T10:52:22.074Z,21.20
2019-01-10T10:53:22.019Z,22.30
2019-01-10T10:54:21.960Z,22.10
2019-01-10T10:55:21.913Z,21.60
2019-01-10T10:56:21.958Z,21.90
2019-01-10T10:57:21.967Z,23.50
2019-01-10T10:58:21.749Z,23.70
2019-01-10T10:59:21.684Z,18.60
2019-01-10T11:00:21.622Z,22.10
2019-01-10T11:01:21.565Z,19.40
2019-01-10T11:02:21.524Z,18.30
2019-01-10T11:03:21.453Z,20.20
2019-01-10T11:04:21.393Z,17.70
2019-01-10T11:05:21.433Z,20.50
2019-01-10T11:06:21.278Z,20.90
2019-01-10T11:07:21.220Z,20.70
2019-01-10T11:08:21.179Z,18.30
2019-01-10T11:09:21.102Z,18.10
2019-01-10T11:10:21.036Z,19.30
2019-01-10T11:11:20.981Z,20.00
2019-01-10T11:12:20.918Z,20.20
2019-01-10T11:13:20.856Z,18.30
2019-01-10T11:14:20.814Z,19.60
2019-01-10T11:15:20.728Z,19.30
2019-01-10T11:16:20.661Z,19.90
2019-01-10T11:17:20.588Z,22.90
2019-01-10T11:18:20.521Z,18.20
2019-01-10T11:19:20.472Z,19.00
2019-01-10T11:20:20.418Z,20.90
2019-01-10T11:21:20.672Z,19.30
2019-01-10T11:22:20.287Z,21.90
2019-01-10T11:23:20.239Z,20.90
2019-01-10T11:24:20.164Z,20.30
2019-01-10T11:25:20.098Z,16.90
2019-01-10T11:26:20.049Z,23.50
2019-01-10T11:27:19.968Z,21.20
2019-01-10T11:28:19.908Z,17.30
2019-01-10T11:29:19.840Z,18.60
2019-01-10T11:30:19.777Z,19.80
2019-01-10T11:31:19.703Z,22.10
2019-01-10T11:32:19.657Z,18.80
2019-01-10T11:33:19.570Z,18.30
2019-01-10T11:34:19.515Z,18.80
2019-01-10T11:35:19.452Z,18.70
2019-01-10T11:36:19.395Z,18.10
2019-01-10T11:37:19.340Z,15.30
2019-01-10T11:38:19.295Z,15.40
2019-01-10T11:39:19.215Z,19.80
2019-01-10T11:40:19.156Z,17.80
2019-01-10T11:41:19.087Z,16.00
2019-01-10T11:42:19.024Z,17.80
2019-01-10T11:43:18.973Z,20.70
2019-01-10T11:44:18.928Z,19.30
2019-01-10T11:45:18.855Z,17.20
2019-01-10T11:46:19.659Z,15.00
2019-01-10T11:47:18.739Z,17.30
2019-01-10T11:48:18.677Z,14.70
2019-01-10T11:49:18.613Z,19.00
2019-01-10T11:50:18.664Z,16.40
2019-01-10T11:51:18.508Z,15.50
2019-01-10T11:52:18.436Z,14.80
2019-01-10T11:53:18.379Z,14.00
2019-01-10T11:54:18.322Z,15.90
2019-01-10T11:55:18.258Z,14.40
2019-01-10T11:56:18.231Z,16.20
2019-01-10T11:57:18.137Z,18.00
2019-01-10T11:58:18.079Z,16.30
2019-01-10T11:59:18.033Z,15.70
2019-01-10T12:00:17.970Z,17.90
2019-01-10T12:01:17.909Z,16.50
2019-01-10T12:02:17.861Z,16.70
2019-01-10T12:03:17.796Z,17.10
2019-01-10T12:04:17.735Z,17.00
2019-01-10T12:05:17.676Z,17.10
2019-01-10T12:06:17.611Z,17.40
2019-01-10T12:07:17.546Z,14.80
2019-01-10T12:08:17.511Z,14.70
2019-01-10T12:09:17.424Z,18.00
2019-01-10T12:10:17.360Z,15.50
2019-01-10T12:11:17.307Z,16.60
2019-01-10T12:12:17.244Z,17.00
2019-01-10T12:13:17.183Z,13.60
2019-01-10T12:14:17.141Z,17.40
2019-01-10T12:15:17.077Z,15.60
2019-01-10T12:16:17.012Z,16.70
2019-01-10T12:17:16.953Z,21.20
2019-01-10T12:18:16.886Z,22.30
2019-01-10T12:19:16.826Z,21.80
2019-01-10T12:20:16.857Z,16.60
2019-01-10T12:21:16.694Z,16.50
2019-01-10T12:22:16.630Z,17.40
2019-01-10T12:23:16.916Z,16.80
2019-01-10T12:24:16.506Z,15.10
2019-01-10T12:25:16.443Z,13.40
2019-01-10T12:26:16.405Z,16.70
2019-01-10T12:27:16.341Z,15.60
2019-01-10T12:28:16.265Z,21.00
2019-01-10T12:29:16.203Z,13.70
2019-01-10T12:30:16.241Z,16.80
2019-01-10T12:31:16.085Z,19.70
2019-01-10T12:32:16.036Z,14.70
2019-01-10T12:33:15.970Z,15.20
2019-01-10T12:34:15.911Z,15.60
2019-01-10T12:35:15.852Z,14.20
2019-01-10T12:36:15.791Z,16.00
2019-01-10T12:37:15.731Z,17.50
2019-01-10T12:38:15.680Z,15.30
2019-01-10T12:39:15.703Z,15.00
2019-01-10T12:40:15.549Z,17.10
2019-01-10T12:41:15.480Z,18.10
2019-01-10T12:42:15.423Z,12.40
2019-01-10T12:43:15.364Z,14.00
2019-01-10T12:44:15.318Z,17.50
2019-01-10T12:45:15.242Z,15.00
2019-01-10T12:46:15.244Z,14.50
2019-01-10T12:47:15.107Z,14.30
2019-01-10T12:48:15.046Z,12.90
2019-01-10T12:49:14.979Z,15.80
2019-01-10T12:50:14.953Z,16.10
2019-01-10T12:51:14.859Z,15.90
2019-01-10T12:52:14.798Z,15.90
2019-01-10T12:53:14.732Z,18.60
2019-01-10T12:54:14.675Z,14.40
2019-01-10T12:55:14.626Z,16.10
2019-01-10T12:56:14.582Z,12.60
2019-01-10T12:57:14.501Z,14.10
2019-01-10T12:58:14.444Z,15.30
2019-01-10T12:59:14.393Z,16.50
2019-01-10T13:00:14.335Z,15.10
2019-01-10T13:01:14.301Z,12.00
2019-01-10T13:02:14.236Z,19.10
2019-01-10T13:03:14.169Z,16.70
2019-01-10T13:04:14.108Z,16.50
2019-01-10T13:05:14.049Z,16.00
2019-01-10T13:06:13.985Z,14.70
2019-01-10T13:07:13.975Z,13.30
2019-01-10T13:08:14.209Z,13.30
2019-01-10T13:09:13.816Z,16.00
2019-01-10T13:10:13.739Z,15.20
2019-01-10T13:11:13.685Z,18.00
2019-01-10T13:12:13.623Z,15.80
2019-01-10T13:13:13.562Z,15.90
2019-01-10T13:14:13.528Z,14.10
2019-01-10T13:15:13.456Z,15.00
2019-01-10T13:16:13.387Z,16.90
2019-01-10T13:17:13.336Z,15.80
2019-01-10T13:18:13.272Z,16.10
2019-01-10T13:19:13.209Z,12.70
2019-01-10T13:20:13.182Z,11.80
2019-01-10T13:21:13.086Z,14.40
2019-01-10T13:22:13.030Z,14.20
2019-01-10T13:23:12.980Z,14.20
2019-01-10T13:24:12.912Z,13.20
2019-01-10T13:25:12.896Z,11.50
2019-01-10T13:26:12.909Z,12.40
2019-01-10T13:27:12.720Z,13.70
2019-01-10T13:28:12.665Z,14.60
2019-01-10T13:29:12.607Z,12.50
2019-01-10T13:30:12.546Z,14.30
2019-01-10T13:31:12.490Z,13.20
2019-01-10T13:32:12.449Z,13.50
2019-01-10T13:33:12.375Z,14.00
2019-01-10T13:34:12.324Z,11.10
2019-01-10T13:35:12.264Z,14.70
2019-01-10T13:36:12.251Z,14.40
2019-01-10T13:37:12.170Z,14.30
2019-01-10T13:38:12.120Z,13.40
2019-01-10T13:39:12.047Z,14.60
2019-01-10T13:40:11.989Z,13.30
2019-01-10T13:41:11.929Z,12.20
2019-01-10T13:42:11.877Z,11.50
2019-01-10T13:43:11.817Z,13.20
2019-01-10T13:44:11.775Z,10.90
2019-01-10T13:45:11.693Z,12.70
2019-01-10T13:46:11.631Z,13.00
2019-01-10T13:47:11.572Z,11.00
2019-01-10T13:48:11.511Z,9.90
2019-01-10T13:49:11.452Z,14.30
2019-01-10T13:50:11.476Z,14.20
2019-01-10T13:51:11.332Z,12.80
2019-01-10T13:52:11.271Z,11.20
2019-01-10T13:53:11.204Z,11.70
2019-01-10T13:54:11.126Z,10.50
2019-01-10T13:55:11.065Z,12.10
2019-01-10T13:56:11.043Z,13.60
2019-01-10T13:57:10.927Z,12.60
2019-01-10T13:58:10.868Z,11.00
2019-01-10T14:00:10.737Z,11.20
2019-01-10T14:03:27.749Z,6.40
2019-01-10T14:04:27.842Z,8.90
2019-01-10T14:05:27.726Z,9.80
2019-01-10T14:06:27.717Z,9.40
2019-01-10T14:07:27.703Z,11.00
2019-01-10T14:08:27.681Z,9.90
2019-01-10T14:09:27.694Z,12.10
2019-01-10T14:10:27.675Z,9.70
2019-01-10T14:11:27.655Z,11.70
2019-01-10T14:12:27.642Z,10.60
2019-01-10T14:13:27.630Z,10.60
2019-01-10T14:14:27.623Z,11.50
2019-01-10T14:15:27.629Z,13.00
2019-01-10T14:16:27.601Z,15.70
2019-01-10T14:17:27.588Z,10.70
2019-01-10T14:18:27.578Z,10.80
2019-01-10T14:19:27.566Z,12.40
2019-01-10T14:20:27.560Z,12.20
2019-01-10T14:21:27.559Z,14.00
2019-01-10T14:22:27.536Z,13.10
2019-01-10T14:23:27.639Z,13.30
2019-01-10T14:24:27.513Z,13.30
2019-01-10T14:25:27.505Z,13.80
2019-01-10T14:26:27.494Z,14.50
2019-01-10T14:27:27.594Z,10.60
2019-01-10T14:28:27.473Z,13.50
2019-01-10T14:29:27.460Z,14.80
2019-01-10T14:30:27.449Z,13.00
2019-01-10T14:31:27.443Z,13.60
2019-01-10T14:32:27.427Z,15.90
2019-01-10T14:33:27.447Z,12.20
2019-01-10T14:34:27.411Z,17.90
2019-01-10T14:35:27.398Z,14.80
2019-01-10T14:36:27.385Z,15.30
2019-01-10T14:37:27.375Z,15.00
2019-01-10T14:38:27.366Z,14.20
2019-01-10T14:39:27.369Z,18.10
2019-01-10T14:40:27.347Z,14.20
2019-01-10T14:41:27.334Z,15.70
2019-01-10T14:42:27.337Z,19.60
2019-01-10T14:43:27.315Z,14.10
2019-01-10T14:44:27.305Z,13.70
2019-01-10T14:45:27.304Z,18.10
2019-01-10T14:46:27.283Z,16.40
2019-01-10T14:47:27.270Z,18.30
2019-01-10T14:48:27.266Z,16.30
2019-01-10T14:49:27.247Z,27.70
2019-01-10T14:50:27.237Z,21.40
2019-01-10T14:51:27.244Z,16.30
2019-01-10T14:52:27.218Z,15.30
2019-01-10T14:53:27.209Z,15.80
2019-01-10T14:54:27.205Z,15.70
2019-01-10T14:55:27.192Z,16.50
2019-01-10T14:56:27.173Z,18.50
2019-01-10T14:57:27.183Z,16.00
2019-01-10T14:58:27.170Z,15.50
2019-01-10T14:59:27.144Z,18.80
2019-01-10T15:00:27.135Z,16.70
2019-01-10T15:01:27.126Z,17.20
2019-01-10T15:02:27.113Z,17.20
2019-01-10T15:03:27.115Z,18.20
2019-01-10T15:04:27.090Z,17.30
2019-01-10T15:05:27.086Z,18.30
2019-01-10T15:06:27.071Z,17.80
2019-01-10T15:07:27.061Z,19.70
2019-01-10T15:08:27.052Z,15.30
2019-01-10T15:09:27.072Z,20.10
2019-01-10T15:10:27.029Z,19.80
2019-01-10T15:11:27.016Z,15.90
2019-01-10T15:12:27.007Z,16.10
2019-01-10T15:13:26.996Z,17.40
2019-01-10T15:14:26.987Z,18.70
2019-01-10T15:15:27.078Z,17.20
2019-01-10T15:16:26.973Z,17.80
2019-01-10T15:17:26.952Z,19.50
2019-01-10T15:18:26.946Z,17.10
2019-01-10T15:19:26.933Z,16.10
2019-01-10T15:20:26.926Z,16.50
2019-01-10T15:21:26.952Z,18.40
2019-01-10T15:22:26.900Z,19.30
2019-01-10T15:23:26.889Z,16.50
2019-01-10T15:24:26.875Z,16.60
2019-01-10T15:25:26.868Z,19.80
2019-01-10T15:26:26.861Z,17.80
2019-01-10T15:27:26.965Z,17.70
2019-01-10T15:28:26.832Z,18.80
2019-01-10T15:29:26.832Z,19.00
2019-01-10T15:30:26.821Z,19.90
2019-01-10T15:31:26.806Z,18.80
2019-01-10T15:32:26.797Z,17.30
2019-01-10T15:33:26.813Z,15.40
2019-01-10T15:34:26.775Z,20.60
2019-01-10T15:35:26.764Z,17.50
2019-01-10T15:36:26.758Z,19.50
2019-01-10T15:37:26.742Z,21.80
2019-01-10T15:38:26.729Z,21.70
2019-01-10T15:39:26.832Z,18.00
2019-01-10T15:40:26.724Z,17.50
2019-01-10T15:41:26.701Z,16.80
2019-01-10T15:42:26.692Z,18.40
2019-01-10T15:43:26.675Z,20.40
2019-01-10T15:44:29.199Z,20.90
2019-01-10T15:45:26.674Z,28.00
2019-01-10T15:46:26.650Z,21.00
2019-01-10T15:47:26.634Z,22.30
2019-01-10T15:48:26.621Z,21.10
2019-01-10T15:49:26.615Z,21.70
2019-01-10T15:50:26.612Z,23.00
2019-01-10T15:51:26.614Z,21.80
2019-01-10T15:52:26.599Z,18.30
2019-01-10T15:53:26.580Z,22.50
2019-01-10T15:54:26.562Z,18.90
2019-01-10T15:55:26.553Z,16.20
2019-01-10T15:56:26.549Z,19.10
2019-01-10T15:57:26.635Z,19.20
2019-01-10T15:58:26.522Z,19.20
2019-01-10T15:59:26.507Z,19.90
2019-01-10T16:00:26.503Z,19.20
2019-01-10T16:01:26.493Z,16.60
2019-01-10T16:02:26.516Z,20.80
2019-01-10T16:03:26.490Z,18.60
2019-01-10T16:04:26.455Z,21.10
2019-01-10T16:05:26.446Z,22.00
2019-01-10T16:06:26.439Z,21.50
2019-01-10T16:07:27.080Z,20.80
2019-01-10T16:08:26.423Z,18.40
2019-01-10T16:09:26.420Z,18.10
2019-01-10T16:10:26.413Z,19.00
2019-01-10T16:11:26.381Z,19.50
2019-01-10T16:12:26.369Z,19.70
2019-01-10T16:13:26.359Z,20.20
2019-01-10T16:14:26.357Z,19.90
2019-01-10T16:15:26.362Z,18.40
2019-01-10T16:16:26.330Z,21.10
2019-01-10T16:17:26.324Z,19.40
2019-01-10T16:18:26.316Z,18.00
2019-01-10T16:19:26.301Z,20.00
2019-01-10T16:20:26.288Z,23.80
2019-01-10T16:21:26.299Z,23.30
2019-01-10T16:22:26.269Z,19.20
2019-01-10T16:23:26.257Z,17.90
2019-01-10T16:24:26.244Z,18.90
2019-01-10T16:25:26.237Z,20.90
2019-01-10T16:26:26.231Z,21.10
2019-01-10T16:27:26.237Z,21.10
2019-01-10T16:28:26.202Z,20.00
2019-01-10T16:29:26.196Z,24.00
2019-01-10T16:30:27.362Z,21.00
2019-01-10T16:31:26.177Z,20.10
2019-01-10T16:32:26.161Z,20.20
2019-01-10T16:33:26.177Z,20.50
2019-01-10T16:34:26.192Z,22.50
2019-01-10T16:35:26.131Z,21.30
2019-01-10T16:36:26.130Z,21.10
2019-01-10T16:37:26.117Z,21.70
2019-01-10T16:38:26.099Z,19.00
2019-01-10T16:39:26.131Z,17.10
2019-01-10T16:40:26.080Z,22.20
2019-01-10T16:41:26.080Z,21.60
2019-01-10T16:42:26.068Z,26.90
2019-01-10T16:43:26.050Z,25.50
2019-01-10T16:44:26.037Z,22.60
2019-01-10T16:45:26.040Z,19.00
2019-01-10T16:46:26.024Z,19.50
2019-01-10T16:47:31.500Z,21.70
2019-01-10T16:48:26.993Z,23.30
2019-01-10T16:49:26.011Z,21.60
2019-01-10T16:50:25.973Z,22.90
2019-01-10T16:51:25.988Z,23.20
2019-01-10T16:52:25.961Z,19.00
2019-01-10T16:53:25.956Z,25.70
2019-01-10T16:54:25.957Z,21.90
2019-01-10T16:55:25.926Z,20.30
2019-01-10T16:56:25.913Z,21.10
2019-01-10T16:57:25.934Z,20.70
2019-01-10T16:58:25.893Z,22.00
2019-01-10T16:59:25.884Z,21.90
2019-01-10T17:00:25.877Z,22.70
2019-01-10T17:01:25.862Z,22.70
2019-01-10T17:02:25.856Z,25.60
2019-01-10T17:03:25.862Z,22.90
2019-01-10T17:04:25.838Z,24.40
2019-01-10T17:05:25.826Z,22.80
2019-01-10T17:06:25.810Z,21.60
2019-01-10T17:07:26.290Z,24.00
2019-01-10T17:08:25.845Z,24.20
2019-01-10T17:09:25.798Z,22.70
2019-01-10T17:10:25.786Z,20.50
2019-01-10T17:11:25.753Z,24.40
2019-01-10T17:12:25.746Z,22.60
2019-01-10T17:13:25.740Z,22.50
2019-01-10T17:14:25.727Z,26.00
2019-01-10T17:15:25.758Z,26.70
2019-01-10T17:16:25.725Z,24.00
2019-01-10T17:17:25.692Z,25.80
2019-01-10T17:18:25.683Z,22.30
2019-01-10T17:19:25.675Z,21.60
2019-01-10T17:20:25.666Z,25.40
2019-01-10T17:21:25.711Z,22.30
2019-01-10T17:22:25.640Z,26.10
2019-01-10T17:23:25.633Z,23.10
2019-01-10T17:24:25.625Z,22.20
2019-01-10T17:25:25.666Z,21.20
2019-01-10T17:26:25.656Z,20.20
2019-01-10T17:27:25.615Z,24.90
2019-01-10T17:28:25.579Z,22.90
2019-01-10T17:29:25.566Z,21.10
2019-01-10T17:30:25.598Z,22.30
2019-01-10T17:31:25.560Z,23.60
2019-01-10T17:32:25.551Z,25.10
2019-01-10T17:33:25.550Z,22.70
2019-01-10T17:34:25.521Z,24.40
2019-01-10T17:35:25.515Z,21.70
2019-01-10T17:36:25.501Z,20.90
2019-01-10T17:37:25.499Z,23.00
2019-01-10T17:38:25.483Z,24.50
2019-01-10T17:39:25.483Z,23.40
2019-01-10T17:40:25.455Z,22.50
2019-01-10T17:41:25.453Z,20.70
2019-01-10T17:42:25.443Z,22.90
2019-01-10T17:43:25.420Z,23.90
2019-01-10T17:44:25.416Z,22.60
2019-01-10T17:45:25.420Z,24.40
2019-01-10T17:46:25.399Z,21.50
2019-01-10T17:47:25.385Z,26.80
2019-01-10T17:48:25.385Z,22.60
2019-01-10T17:49:25.363Z,24.30
2019-01-10T17:50:25.368Z,23.80
2019-01-10T17:51:25.356Z,21.90
2019-01-10T17:52:25.328Z,19.90
2019-01-10T17:53:26.138Z,21.70
2019-01-10T17:54:25.325Z,23.60
2019-01-10T17:55:25.302Z,21.70
2019-01-10T17:56:25.289Z,26.00
2019-01-10T17:57:25.310Z,20.30
2019-01-10T17:58:25.269Z,20.90
2019-01-10T17:59:25.267Z,21.50
2019-01-10T18:00:25.256Z,23.80
2019-01-10T18:01:25.233Z,22.00
2019-01-10T18:02:25.239Z,20.70
2019-01-10T18:03:25.237Z,23.00
2019-01-10T18:04:25.211Z,20.70
2019-01-10T18:05:25.195Z,21.50
2019-01-10T18:06:25.192Z,22.60
2019-01-10T18:07:25.176Z,21.90
2019-01-10T18:08:25.179Z,21.50
2019-01-10T18:09:25.190Z,21.60
2019-01-10T18:10:25.150Z,23.50
2019-01-10T18:11:25.138Z,22.40
2019-01-10T18:12:25.153Z,21.50
2019-01-10T18:13:25.112Z,22.00
2019-01-10T18:14:25.109Z,23.30
2019-01-10T18:15:25.116Z,22.30
2019-01-10T18:16:25.080Z,20.00
2019-01-10T18:17:25.079Z,21.70
2019-01-10T18:18:25.070Z,20.60
2019-01-10T18:19:25.053Z,19.90
2019-01-10T18:20:25.048Z,20.70
2019-01-10T18:21:25.053Z,22.60
2019-01-10T18:22:25.021Z,21.00
2019-01-10T18:23:25.021Z,24.70
2019-01-10T18:24:25.009Z,20.80
2019-01-10T18:25:25.010Z,20.00
2019-01-10T18:26:24.983Z,21.50
2019-01-10T18:27:24.996Z,19.20
2019-01-10T18:28:24.961Z,20.70
2019-01-10T18:29:25.002Z,21.70
2019-01-10T18:30:24.939Z,21.90
2019-01-10T18:31:24.931Z,24.30
2019-01-10T18:32:24.924Z,19.50
2019-01-10T18:33:24.916Z,23.00
2019-01-10T18:34:24.903Z,21.10
2019-01-10T18:35:26.462Z,34.10
2019-01-10T18:36:24.871Z,29.10
2019-01-10T18:37:24.864Z,25.00
2019-01-10T18:38:24.877Z,23.90
2019-01-10T18:39:24.857Z,24.50
2019-01-10T18:40:24.839Z,21.40
2019-01-10T18:41:24.816Z,21.30
2019-01-10T18:42:24.825Z,23.00
2019-01-10T18:43:24.797Z,21.00
2019-01-10T18:44:24.828Z,22.50
2019-01-10T18:45:24.829Z,23.50
2019-01-10T18:46:25.172Z,21.50
2019-01-10T18:47:24.752Z,24.40
2019-01-10T18:48:24.742Z,21.50
2019-01-10T18:49:24.746Z,19.60
2019-01-10T18:50:24.736Z,21.30
2019-01-10T18:51:24.746Z,24.30
2019-01-10T18:52:24.742Z,20.40
2019-01-10T18:53:24.694Z,22.70
2019-01-10T18:54:24.685Z,22.80
2019-01-10T18:55:24.674Z,20.70
2019-01-10T18:56:24.672Z,20.90
2019-01-10T18:57:24.685Z,19.50
2019-01-10T18:58:24.644Z,21.70
2019-01-10T18:59:24.633Z,21.50
2019-01-10T19:00:24.625Z,23.80
2019-01-10T19:01:24.611Z,22.60
2019-01-10T19:02:24.611Z,25.10
2019-01-10T19:03:24.622Z,21.10
2019-01-10T19:04:24.578Z,26.10
2019-01-10T19:05:24.585Z,22.50
2019-01-10T19:06:24.560Z,25.40
2019-01-10T19:07:24.553Z,22.70
2019-01-10T19:08:24.551Z,30.00
2019-01-10T19:09:24.569Z,22.40
2019-01-10T19:10:24.524Z,26.50
2019-01-10T19:11:24.521Z,24.90
2019-01-10T19:12:24.512Z,24.10
2019-01-10T19:13:24.492Z,24.50
2019-01-10T19:14:24.486Z,25.80
2019-01-10T19:15:24.502Z,28.10
2019-01-10T19:16:24.459Z,26.20
2019-01-10T19:17:26.208Z,26.50
2019-01-10T19:18:24.436Z,25.20
2019-01-10T19:19:24.431Z,23.80
2019-01-10T19:20:24.421Z,25.70
2019-01-10T19:21:24.433Z,25.40
2019-01-10T19:22:24.400Z,24.50
2019-01-10T19:23:24.401Z,24.00
2019-01-10T19:24:24.375Z,23.40
2019-01-10T19:25:24.382Z,21.60
2019-01-10T19:26:24.350Z,19.70
2019-01-10T19:27:24.359Z,20.80
2019-01-10T19:28:24.335Z,19.60
2019-01-10T19:29:24.319Z,20.20
2019-01-10T19:30:24.319Z,23.30
2019-01-10T19:31:24.302Z,54.40
2019-01-10T19:32:24.296Z,68.00
2019-01-10T19:33:24.296Z,38.70
2019-01-10T19:34:24.270Z,26.40
2019-01-10T19:35:24.271Z,31.70
2019-01-10T19:36:24.252Z,24.20
2019-01-10T19:37:24.245Z,19.50
2019-01-10T19:38:24.233Z,19.30
2019-01-10T19:39:24.249Z,21.40
2019-01-10T19:40:24.221Z,20.00
2019-01-10T19:41:24.200Z,19.70
2019-01-10T19:42:24.194Z,20.10
2019-01-10T19:43:24.187Z,17.40
2019-01-10T19:44:24.171Z,18.60
2019-01-10T19:45:24.175Z,21.70
2019-01-10T19:46:24.142Z,19.30
2019-01-10T19:47:24.139Z,23.30
2019-01-10T19:48:24.125Z,20.60
2019-01-10T19:49:24.111Z,19.40
2019-01-10T19:50:24.101Z,20.80
2019-01-10T19:51:24.124Z,19.30
2019-01-10T19:52:24.079Z,20.90
2019-01-10T19:53:24.066Z,20.40
2019-01-10T19:54:24.059Z,23.70
2019-01-10T19:55:24.053Z,26.70
2019-01-10T19:56:24.040Z,24.80
2019-01-10T19:57:24.053Z,23.50
2019-01-10T19:58:24.018Z,20.50
2019-01-10T19:59:24.106Z,21.80
2019-01-10T20:00:24.005Z,23.80
2019-01-10T20:01:23.995Z,22.30
2019-01-10T20:02:31.023Z,23.90
2019-01-10T20:03:23.967Z,23.80
2019-01-10T20:04:23.980Z,23.30
2019-01-10T20:05:23.945Z,21.90
2019-01-10T20:06:23.951Z,21.70
2019-01-10T20:07:23.925Z,18.50
2019-01-10T20:08:23.977Z,19.10
2019-01-10T20:09:29.854Z,19.30
2019-01-10T20:10:24.916Z,24.40
2019-01-10T20:11:23.884Z,18.90
2019-01-10T20:12:23.925Z,21.20
2019-01-10T20:13:23.878Z,18.70
2019-01-10T20:14:23.877Z,19.90
2019-01-10T20:15:23.848Z,18.60
2019-01-10T20:16:23.852Z,19.80
2019-01-10T20:17:23.826Z,19.90
2019-01-10T20:18:23.826Z,19.50
2019-01-10T20:19:23.858Z,20.60
2019-01-10T20:20:23.823Z,24.00
2019-01-10T20:21:23.791Z,21.10
2019-01-10T20:22:23.768Z,20.30
2019-01-10T20:23:23.799Z,19.90
2019-01-10T20:24:23.799Z,20.20
2019-01-10T20:25:23.733Z,20.80
2019-01-10T20:26:23.743Z,19.60
2019-01-10T20:27:23.720Z,19.80
2019-01-10T20:28:23.836Z,21.50
2019-01-10T20:29:23.842Z,21.50
2019-01-10T20:30:23.743Z,21.50
2019-01-10T20:31:23.691Z,21.40
2019-01-10T20:32:23.704Z,21.20
2019-01-10T20:33:23.655Z,25.40
2019-01-10T20:34:23.642Z,25.60
2019-01-10T20:35:23.637Z,24.50
2019-01-10T20:36:23.622Z,24.70
2019-01-10T20:37:23.614Z,22.00
2019-01-10T20:38:23.616Z,24.90
2019-01-10T20:39:23.590Z,23.80
2019-01-10T20:40:23.578Z,26.10
2019-01-10T20:41:23.567Z,24.00
2019-01-10T20:42:23.593Z,23.30
2019-01-10T20:43:23.566Z,22.10
2019-01-10T20:44:23.596Z,22.60
2019-01-10T20:45:23.536Z,21.60
2019-01-10T20:46:23.534Z,21.60
2019-01-10T20:47:23.541Z,22.50
2019-01-10T20:48:23.514Z,22.90
2019-01-10T20:49:23.491Z,23.30
2019-01-10T20:50:23.494Z,21.30
2019-01-10T20:51:23.472Z,24.60
2019-01-10T20:52:23.460Z,22.60
2019-01-10T20:53:23.444Z,24.30
2019-01-10T20:54:23.434Z,34.00
2019-01-10T20:55:23.424Z,26.40
2019-01-10T20:56:23.434Z,24.50
2019-01-10T20:57:23.402Z,23.60
2019-01-10T20:58:23.392Z,23.20
2019-01-10T20:59:23.377Z,23.90
2019-01-10T21:00:23.373Z,24.70
2019-01-10T21:01:23.364Z,22.60
2019-01-10T21:02:23.370Z,23.90
2019-01-10T21:03:23.338Z,22.60
2019-01-10T21:04:23.329Z,31.80
2019-01-10T21:05:23.389Z,32.20
2019-01-10T21:06:23.365Z,31.00
2019-01-10T21:07:23.326Z,26.80
2019-01-10T21:08:23.415Z,27.90
2019-01-10T21:09:23.277Z,26.70
2019-01-10T21:10:23.284Z,23.30
2019-01-10T21:11:23.285Z,24.00
2019-01-10T21:12:23.245Z,24.30
2019-01-10T21:13:23.232Z,23.80
2019-01-10T21:14:23.303Z,23.20
2019-01-10T21:15:23.221Z,23.30
2019-01-10T21:16:23.209Z,26.40
2019-01-10T21:17:23.190Z,24.70
2019-01-10T21:18:28.668Z,26.30
2019-01-10T21:19:24.183Z,25.80
2019-01-10T21:20:23.164Z,26.30
2019-01-10T21:21:23.155Z,28.10
2019-01-10T21:22:23.145Z,23.40
2019-01-10T21:23:23.126Z,27.90
2019-01-10T21:24:23.116Z,26.80
2019-01-10T21:25:23.126Z,31.70
2019-01-10T21:26:23.102Z,27.10
2019-01-10T21:27:23.094Z,31.80
2019-01-10T21:28:24.409Z,28.30
2019-01-10T21:29:23.073Z,27.50
2019-01-10T21:30:23.056Z,26.50
2019-01-10T21:31:23.062Z,24.80
2019-01-10T21:32:23.041Z,25.10
2019-01-10T21:33:23.025Z,23.50
2019-01-10T21:34:23.018Z,23.80
2019-01-10T21:35:23.021Z,21.90
2019-01-10T21:36:22.999Z,21.80
2019-01-10T21:37:23.007Z,24.40
2019-01-10T21:38:22.977Z,23.10
2019-01-10T21:39:22.991Z,28.80
2019-01-10T21:40:22.970Z,26.70
2019-01-10T21:41:22.944Z,26.40
2019-01-10T21:42:22.932Z,28.20
2019-01-10T21:43:23.028Z,23.00
2019-01-10T21:44:22.910Z,24.30
2019-01-10T21:45:22.906Z,25.30
2019-01-10T21:46:22.893Z,25.30
2019-01-10T21:47:22.883Z,21.20
2019-01-10T21:48:22.880Z,21.90
2019-01-10T21:49:22.906Z,22.10
2019-01-10T21:50:22.848Z,22.30
2019-01-10T21:51:22.845Z,22.80
2019-01-10T21:52:22.829Z,22.90
2019-01-10T21:53:22.820Z,23.20
2019-01-10T21:54:22.812Z,23.20
2019-01-10T21:55:22.938Z,23.20
2019-01-10T21:56:22.787Z,22.50
2019-01-10T21:57:22.774Z,21.90
2019-01-10T21:58:22.764Z,21.80
2019-01-10T21:59:22.755Z,23.70
2019-01-10T22:00:22.749Z,22.10
2019-01-10T22:01:22.766Z,21.30
2019-01-10T22:02:22.726Z,22.90
2019-01-10T22:03:22.711Z,22.80
2019-01-10T22:04:22.700Z,21.50
2019-01-10T22:05:22.695Z,21.70
2019-01-10T22:06:22.684Z,21.60
2019-01-10T22:07:22.691Z,22.80
2019-01-10T22:08:22.662Z,24.50
2019-01-10T22:09:22.652Z,25.20
2019-01-10T22:10:22.639Z,24.00
2019-01-10T22:11:22.639Z,26.20
2019-01-10T22:12:22.930Z,26.40
2019-01-10T22:13:22.927Z,25.50
2019-01-10T22:14:22.596Z,28.00
2019-01-10T22:15:22.588Z,24.20
2019-01-10T22:16:22.649Z,24.70
2019-01-10T22:17:22.568Z,23.40
2019-01-10T22:18:22.559Z,22.40
2019-01-10T22:19:22.570Z,22.90
2019-01-10T22:20:22.530Z,25.50
2019-01-10T22:21:22.530Z,23.90
2019-01-10T22:22:22.511Z,21.60
2019-01-10T22:23:22.505Z,21.40
2019-01-10T22:24:22.495Z,25.00
2019-01-10T22:25:22.498Z,23.50
2019-01-10T22:26:22.469Z,23.70
2019-01-10T22:27:22.462Z,22.90
2019-01-10T22:28:22.447Z,23.30
2019-01-10T22:29:22.440Z,24.40
2019-01-10T22:30:22.434Z,21.30
2019-01-10T22:31:22.433Z,23.00
2019-01-10T22:32:22.411Z,21.70
2019-01-10T22:33:22.398Z,20.40
2019-01-10T22:34:22.386Z,22.90
2019-01-10T22:35:22.379Z,23.10
2019-01-10T22:36:22.363Z,23.90
2019-01-10T22:37:28.781Z,22.00
2019-01-10T22:38:23.344Z,22.40
2019-01-10T22:39:22.338Z,22.70
2019-01-10T22:40:22.322Z,22.10
2019-01-10T22:41:22.315Z,27.00
2019-01-10T22:42:22.303Z,23.00
2019-01-10T22:43:22.315Z,23.30
2019-01-10T22:44:22.283Z,25.90
2019-01-10T22:45:22.274Z,24.70
2019-01-10T22:46:22.257Z,25.60
2019-01-10T22:47:22.257Z,25.30
2019-01-10T22:48:22.245Z,28.10
2019-01-10T22:49:22.250Z,25.20
2019-01-10T22:50:22.219Z,23.90
2019-01-10T22:51:22.210Z,23.80
2019-01-10T22:52:22.204Z,25.50
2019-01-10T22:53:22.187Z,24.50
2019-01-10T22:54:22.196Z,25.60
2019-01-10T22:55:22.193Z,26.20
2019-01-10T22:56:22.163Z,26.60
2019-01-10T22:57:22.163Z,22.60
2019-01-10T22:58:22.137Z,23.00
2019-01-10T22:59:22.140Z,24.30
2019-01-10T23:00:22.119Z,25.50
2019-01-10T23:01:22.188Z,26.60
2019-01-10T23:02:22.097Z,28.60
2019-01-10T23:03:22.090Z,24.40
2019-01-10T23:04:22.077Z,25.20